Time;durP1;ratioP1;P1;durP2;ratioP2;P2;SDS_P1;SDS_P2;PMS_P1;PMS_P2;Temp;Humidity;BMP_temperature;BMP_pressure;BME280_temperature;BME280_humidity;BME280_pressure;Samples;Min_cycle;Max_cycle;Signal;HPM_P1;HPM_P2
2022/01/02 00:01:45;;;;;;;16.80;11.50;;;;;;;10.60;93.36;95627.97;5113472;28;20466;-79
2022/01/02 00:04:15;;;;;;;14.73;12.53;;;;;;;10.63;92.93;95635.63;5113668;28;20446;-78
2022/01/02 00:06:47;;;;;;;17.47;12.47;;;;;;;10.60;93.91;95630.59;5113711;28;20454;-78
2022/01/02 00:09:24;;;;;;;16.67;13.73;;;;;;;10.56;94.54;95632.63;5113539;28;20456;-78
2022/01/02 00:11:54;;;;;;;15.50;12.73;;;;;;;10.55;93.79;95638.81;5113248;28;20849;-78
2022/01/02 00:14:25;;;;;;;15.73;12.17;;;;;;;10.54;93.87;95637.97;5060626;28;20506;-78
2022/01/02 00:16:52;;;;;;;18.57;12.47;;;;;;;10.53;94.05;95638.94;5113524;28;20474;-78
2022/01/02 00:19:28;;;;;;;19.30;12.60;;;;;;;10.55;93.81;95633.56;5113404;28;20446;-78
2022/01/02 00:21:59;;;;;;;17.37;13.20;;;;;;;10.54;94.32;95639.75;5113559;28;20442;-78
2022/01/02 00:24:27;;;;;;;15.40;11.83;;;;;;;10.54;94.11;95627.47;5113536;28;20444;-78
2022/01/02 00:26:57;;;;;;;15.67;12.20;;;;;;;10.53;93.51;95646.81;5113441;28;20444;-78
2022/01/02 00:29:25;;;;;;;16.40;12.07;;;;;;;10.57;94.02;95642.16;5113302;28;20442;-79
2022/01/02 00:31:53;;;;;;;14.10;11.53;;;;;;;10.57;94.30;95646.56;5077979;28;20451;-78
2022/01/02 00:34:20;;;;;;;15.00;12.00;;;;;;;10.61;94.18;95641.00;5113458;28;20516;-78
2022/01/02 00:36:47;;;;;;;14.87;10.63;;;;;;;10.63;93.79;95635.63;5113080;28;20478;-78
2022/01/02 00:39:14;;;;;;;15.13;11.97;;;;;;;10.66;93.37;95632.78;5112994;28;20814;-78
2022/01/02 00:41:45;;;;;;;19.67;15.20;;;;;;;10.69;93.69;95628.13;5060725;28;20442;-78
2022/01/02 00:44:22;;;;;;;13.90;12.13;;;;;;;10.67;93.29;95637.91;5116314;28;20462;-78
2022/01/02 00:46:54;;;;;;;13.07;11.20;;;;;;;10.66;93.92;95641.47;5117391;28;20441;-78
2022/01/02 00:49:26;;;;;;;16.43;12.80;;;;;;;10.64;93.54;95640.75;5117067;28;21013;-78
2022/01/02 00:52:04;;;;;;;15.80;12.30;;;;;;;10.66;92.60;95644.09;5116917;28;20442;-78
2022/01/02 00:54:33;;;;;;;16.30;11.70;;;;;;;10.65;92.85;95645.06;5117120;28;20442;-78
2022/01/02 00:57:05;;;;;;;15.83;11.77;;;;;;;10.67;93.06;95644.94;5117684;28;20495;-78
2022/01/02 00:59:44;;;;;;;11.60;10.40;;;;;;;10.69;93.07;95641.25;5117258;28;20440;-78
2022/01/02 01:02:18;;;;;;;17.53;11.63;;;;;;;10.71;92.76;95654.31;5117386;28;20450;-77
2022/01/02 01:04:47;;;;;;;14.30;12.30;;;;;;;10.74;92.65;95649.66;5117614;28;20443;-79
2022/01/02 01:07:15;;;;;;;16.23;13.17;;;;;;;10.74;92.21;95643.56;5116827;28;20447;-78
2022/01/02 01:09:42;;;;;;;15.00;12.47;;;;;;;10.75;92.59;95642.63;5116692;28;20450;-78
2022/01/02 01:12:10;;;;;;;15.33;11.70;;;;;;;10.76;92.66;95652.16;5116613;28;20439;-78
2022/01/02 01:14:40;;;;;;;14.27;11.47;;;;;;;10.77;91.80;95649.44;5116847;28;20442;-78
2022/01/02 01:17:07;;;;;;;15.17;13.00;;;;;;;10.75;92.04;95659.22;5116912;28;20486;-78
2022/01/02 01:19:34;;;;;;;13.20;11.30;;;;;;;10.78;91.99;95658.97;5117400;28;20439;-78
2022/01/02 01:22:01;;;;;;;13.20;11.63;;;;;;;10.78;91.69;95660.78;5064486;28;20455;-79
2022/01/02 01:24:30;;;;;;;13.93;12.37;;;;;;;10.82;91.60;95663.06;5116231;28;20443;-78
2022/01/02 01:26:58;;;;;;;15.03;11.20;;;;;;;10.84;91.81;95660.31;5117621;28;20447;-78
2022/01/02 01:29:25;;;;;;;15.43;12.87;;;;;;;10.85;90.59;95656.75;5117075;28;20444;-78
2022/01/02 01:31:53;;;;;;;13.60;11.43;;;;;;;10.84;90.64;95657.69;5063596;28;20452;-78
2022/01/02 01:34:20;;;;;;;12.30;11.10;;;;;;;10.84;90.95;95655.91;5116468;28;20435;-78
2022/01/02 01:36:47;;;;;;;17.27;14.23;;;;;;;10.85;89.75;95647.06;5116822;28;20492;-78
2022/01/02 01:39:14;;;;;;;12.20;10.70;;;;;;;10.84;90.22;95650.66;5116600;28;20454;-78
2022/01/02 01:41:41;;;;;;;13.00;11.50;;;;;;;10.83;90.50;95648.13;5116936;28;20936;-78
2022/01/02 01:44:26;;;;;;;15.33;12.37;;;;;;;10.87;90.62;95660.09;5116276;28;20444;-78
2022/01/02 01:46:56;;;;;;;11.17;9.87;;;;;;;10.85;89.78;95661.97;5116685;28;20468;-78
2022/01/02 01:49:25;;;;;;;10.93;9.23;;;;;;;10.84;90.67;95655.91;5116558;28;20460;-78
2022/01/02 01:51:53;;;;;;;15.20;10.70;;;;;;;10.83;90.49;95661.25;5116889;28;20475;-78
2022/01/02 01:54:20;;;;;;;12.13;10.83;;;;;;;10.86;90.12;95658.41;5116904;28;20703;-78
2022/01/02 01:56:48;;;;;;;12.67;9.90;;;;;;;10.86;90.44;95668.91;5115805;28;20490;-79
2022/01/02 01:59:16;;;;;;;13.70;11.20;;;;;;;10.88;90.43;95659.13;5116301;28;21159;-78
2022/01/02 02:01:43;;;;;;;19.03;14.03;;;;;;;10.87;89.95;95654.84;5080666;28;20572;-78
2022/01/02 02:04:11;;;;;;;17.17;11.43;;;;;;;10.89;89.02;95655.56;5115861;28;20446;-79
2022/01/02 02:06:39;;;;;;;18.40;12.07;;;;;;;10.88;89.15;95640.75;5116127;28;20458;-79
2022/01/02 02:09:06;;;;;;;17.57;12.30;;;;;;;10.89;89.68;95658.19;5115856;28;20472;-78
2022/01/02 02:11:36;;;;;;;20.10;14.13;;;;;;;10.94;90.13;95650.78;5115885;28;20439;-79
2022/01/02 02:14:04;;;;;;;17.33;12.53;;;;;;;10.93;88.87;95646.50;5115652;28;20437;-78
2022/01/02 02:16:32;;;;;;;15.93;13.20;;;;;;;10.96;88.74;95646.25;5115613;28;20486;-78
2022/01/02 02:18:59;;;;;;;14.40;11.80;;;;;;;10.98;88.63;95644.34;5116053;28;20445;-78
2022/01/02 02:21:32;;;;;;;18.80;13.40;;;;;;;10.95;88.69;95652.47;5115322;28;20814;-78
2022/01/02 02:23:59;;;;;;;23.63;15.50;;;;;;;10.95;88.16;95651.63;5115902;28;20466;-78
2022/01/02 02:26:26;;;;;;;19.73;12.03;;;;;;;10.96;88.67;95654.16;5063948;28;20454;-78
2022/01/02 02:28:53;;;;;;;19.97;13.83;;;;;;;10.96;88.73;95650.69;5115718;28;20447;-78
2022/01/02 02:31:20;;;;;;;16.37;12.93;;;;;;;10.98;87.98;95657.50;5115530;28;20433;-78
2022/01/02 02:33:47;;;;;;;14.17;11.20;;;;;;;11.01;88.74;95661.72;5115403;28;20424;-79
2022/01/02 02:36:14;;;;;;;15.80;11.60;;;;;;;11.00;87.96;95655.63;5114613;28;20436;-78
2022/01/02 02:38:43;;;;;;;17.53;11.97;;;;;;;10.95;88.42;95652.47;5114962;28;20443;-78
2022/01/02 02:41:09;;;;;;;19.13;13.10;;;;;;;10.97;88.85;95654.97;5115265;28;20439;-78
2022/01/02 02:43:44;;;;;;;15.37;12.00;;;;;;;11.07;88.37;95661.25;5115375;28;20438;-78
2022/01/02 02:49:02;;;;;;;15.87;11.80;;;;;;;11.02;88.24;95651.09;5116108;28;20797;-78
2022/01/02 02:51:35;;;;;;;17.70;12.30;;;;;;;10.98;88.43;95657.50;5065391;28;20528;-78
2022/01/02 02:54:04;;;;;;;18.77;12.87;;;;;;;11.01;88.34;95652.03;5081438;28;20942;-78
2022/01/02 02:56:41;;;;;;;13.43;10.60;;;;;;;11.03;87.48;95660.63;5115007;28;20574;-78
2022/01/02 02:59:10;;;;;;;12.77;9.97;;;;;;;10.99;88.12;95659.19;5114925;28;20446;-78
2022/01/02 03:01:37;;;;;;;15.57;10.47;;;;;;;11.04;88.32;95669.34;5115461;28;20444;-79
2022/01/02 03:04:04;;;;;;;12.30;11.00;;;;;;;11.02;88.39;95669.47;5114664;28;20445;-78
2022/01/02 03:06:31;;;;;;;14.03;10.53;;;;;;;11.06;88.35;95672.69;5114508;28;20453;-79
2022/01/02 03:09:07;;;;;;;12.17;9.30;;;;;;;11.04;88.57;95666.72;5114985;28;20812;-78
2022/01/02 03:11:35;;;;;;;10.60;9.50;;;;;;;11.05;87.26;95678.91;5114374;28;20507;-79
2022/01/02 03:14:02;;;;;;;14.57;10.37;;;;;;;11.02;88.50;95666.84;5114577;28;20466;-78
2022/01/02 03:16:29;;;;;;;12.70;10.73;;;;;;;11.12;88.22;95678.34;5115081;28;20486;-78
2022/01/02 03:18:56;;;;;;;11.33;9.43;;;;;;;11.12;87.66;95680.97;5114556;28;20439;-78
2022/01/02 03:21:23;;;;;;;11.53;9.80;;;;;;;11.12;87.38;95677.50;5114537;28;20446;-79
2022/01/02 03:23:50;;;;;;;11.33;10.20;;;;;;;11.11;87.02;95684.53;5114285;28;20451;-78
2022/01/02 03:26:17;;;;;;;12.73;8.87;;;;;;;11.15;87.03;95683.34;5078434;28;20448;-79
2022/01/02 03:28:46;;;;;;;12.13;9.87;;;;;;;11.20;87.75;95679.53;5078980;28;20813;-78
2022/01/02 03:31:13;;;;;;;11.00;9.73;;;;;;;11.19;87.48;95678.72;5061606;28;20442;-78
2022/01/02 03:33:40;;;;;;;9.10;8.20;;;;;;;11.13;87.52;95682.63;5114338;28;20454;-78
2022/01/02 03:36:07;;;;;;;10.60;9.50;;;;;;;11.15;87.77;95674.63;5114139;28;20451;-78
2022/01/02 03:38:34;;;;;;;13.20;10.70;;;;;;;11.17;86.55;95670.94;5113944;28;20992;-79
2022/01/02 03:41:01;;;;;;;10.87;9.53;;;;;;;11.12;86.30;95670.44;5114679;28;20436;-79
2022/01/02 03:43:28;;;;;;;12.47;10.27;;;;;;;11.12;87.19;95672.25;5113988;28;20940;-78
2022/01/02 03:45:57;;;;;;;10.60;8.67;;;;;;;11.02;86.58;95660.75;5114110;28;20435;-78
2022/01/02 03:48:24;;;;;;;9.03;8.13;;;;;;;11.03;87.22;95675.56;5114307;28;20447;-78
2022/01/02 03:50:51;;;;;;;13.00;9.90;;;;;;;10.96;88.01;95669.06;5114074;28;20446;-79
2022/01/02 03:53:18;;;;;;;10.77;9.50;;;;;;;10.94;87.97;95669.19;5095194;28;20467;-78
2022/01/02 03:55:45;;;;;;;8.80;7.50;;;;;;;10.95;87.61;95668.22;5114371;28;20460;-78
2022/01/02 03:58:11;;;;;;;9.07;7.83;;;;;;;10.95;88.71;95667.38;5113556;28;20487;-79
2022/01/02 04:00:38;;;;;;;11.63;8.47;;;;;;;10.95;87.17;95668.22;5113588;28;20439;-79
2022/01/02 04:03:07;;;;;;;9.60;8.60;;;;;;;10.96;87.39;95669.06;5114216;28;20443;-78
2022/01/02 04:05:33;;;;;;;9.60;8.70;;;;;;;10.99;87.97;95680.22;5113896;28;20436;-79
2022/01/02 04:08:01;;;;;;;15.37;9.90;;;;;;;10.96;88.16;95674.31;5113679;28;20443;-78
2022/01/02 04:10:28;;;;;;;9.27;8.37;;;;;;;10.96;87.64;95679.56;5061930;28;20977;-78
2022/01/02 04:12:55;;;;;;;16.27;12.77;;;;;;;10.99;87.51;95690.72;5114388;28;20670;-78
2022/01/02 04:15:22;;;;;;;15.80;13.00;;;;;;;11.00;87.46;95694.16;5114356;28;20830;-78
2022/01/02 04:17:48;;;;;;;19.70;16.60;;;;;;;11.03;87.88;95699.19;5113011;28;20483;-78
2022/01/02 04:20:17;;;;;;;22.43;16.47;;;;;;;11.04;87.55;95699.09;5113513;28;20441;-78
2022/01/02 04:22:45;;;;;;;24.93;18.10;;;;;;;11.05;87.81;95702.53;5113823;28;20444;-79
2022/01/02 04:25:13;;;;;;;29.73;18.83;;;;;;;11.01;87.70;95709.81;5113962;28;20449;-78
2022/01/02 04:27:40;;;;;;;29.60;19.47;;;;;;;11.01;87.58;95711.59;5113662;28;20460;-79
2022/01/02 04:30:12;;;;;;;77.87;44.17;;;;;;;11.05;87.33;95716.50;5113686;28;20445;-78
2022/01/02 04:32:39;;;;;;;34.10;22.40;;;;;;;11.07;87.44;95717.25;5113750;28;20440;-79
2022/01/02 04:35:06;;;;;;;19.97;14.00;;;;;;;11.04;87.19;95704.34;5113534;28;20484;-78
2022/01/02 04:37:34;;;;;;;20.77;14.63;;;;;;;11.02;87.95;95711.50;5061490;28;20481;-78
2022/01/02 04:40:01;;;;;;;16.83;14.07;;;;;;;10.92;88.05;95710.47;5113345;28;20448;-78
2022/01/02 04:42:28;;;;;;;15.97;13.17;;;;;;;10.94;88.33;95715.59;5113292;28;20441;-79
2022/01/02 04:44:55;;;;;;;16.90;15.10;;;;;;;10.95;88.48;95706.78;5113589;28;20443;-78
2022/01/02 04:47:22;;;;;;;18.90;13.60;;;;;;;10.95;88.72;95709.41;5113375;28;20442;-78
2022/01/02 04:49:49;;;;;;;16.97;12.20;;;;;;;10.99;88.74;95706.47;5061100;28;20774;-78
2022/01/02 04:52:16;;;;;;;17.33;13.57;;;;;;;11.02;87.97;95708.88;5113887;28;20425;-78
2022/01/02 04:54:44;;;;;;;17.63;13.60;;;;;;;10.99;88.17;95711.72;5094601;28;20476;-78
2022/01/02 04:57:11;;;;;;;18.23;12.67;;;;;;;10.95;87.87;95715.50;5061034;28;20483;-78
2022/01/02 04:59:38;;;;;;;16.60;12.87;;;;;;;10.91;88.77;95719.28;5113226;28;20451;-78
2022/01/02 05:02:06;;;;;;;19.53;15.30;;;;;;;10.91;89.15;95724.53;5113787;28;20439;-78
2022/01/02 05:04:33;;;;;;;13.73;11.70;;;;;;;10.91;88.45;95724.53;5113292;28;20453;-78
2022/01/02 05:07:00;;;;;;;10.30;9.33;;;;;;;10.86;89.05;95729.31;5077811;28;20432;-78
2022/01/02 05:09:27;;;;;;;15.13;10.90;;;;;;;10.90;88.83;95720.25;5113353;28;20475;-78
2022/01/02 05:11:55;;;;;;;12.53;10.97;;;;;;;10.96;89.36;95721.59;5113188;28;20820;-78
2022/01/02 05:14:22;;;;;;;11.60;10.47;;;;;;;10.95;88.21;95719.91;5113120;28;20933;-78
2022/01/02 05:16:49;;;;;;;14.87;11.20;;;;;;;10.88;88.97;95718.69;5113504;28;20440;-78
2022/01/02 05:19:16;;;;;;;11.03;9.90;;;;;;;10.88;89.48;95724.78;5113447;28;20455;-78
2022/01/02 05:21:43;;;;;;;14.90;12.20;;;;;;;10.88;90.00;95718.69;5112730;28;20447;-78
2022/01/02 05:24:10;;;;;;;11.73;10.27;;;;;;;10.88;89.63;95729.19;5112846;28;20441;-78
2022/01/02 05:26:37;;;;;;;16.27;11.40;;;;;;;10.80;90.16;95727.13;5112890;28;20444;-78
2022/01/02 05:29:06;;;;;;;16.23;12.40;;;;;;;10.82;89.85;95719.97;5114317;28;20454;-78
2022/01/02 05:31:32;;;;;;;15.23;11.20;;;;;;;10.84;89.33;95723.31;5116351;28;20492;-78
2022/01/02 05:33:59;;;;;;;12.00;10.90;;;;;;;10.81;90.06;95719.13;5116500;28;20798;-78
2022/01/02 05:36:26;;;;;;;11.47;9.83;;;;;;;10.83;89.81;95717.22;5116149;28;20463;-78
2022/01/02 05:38:53;;;;;;;17.37;10.67;;;;;;;10.76;89.64;95713.38;5116676;28;20484;-78
2022/01/02 05:41:21;;;;;;;14.40;12.60;;;;;;;10.79;89.76;95720.19;5116208;28;20445;-78
2022/01/02 05:43:48;;;;;;;20.70;12.97;;;;;;;10.80;90.51;95727.13;5116137;28;20479;-78
2022/01/02 05:46:17;;;;;;;18.50;15.00;;;;;;;10.78;90.55;95718.53;5116414;28;20466;-79
2022/01/02 05:48:44;;;;;;;22.30;13.70;;;;;;;10.74;89.82;95722.31;5063297;28;20518;-78
2022/01/02 05:51:11;;;;;;;15.03;12.30;;;;;;;10.71;90.33;95723.38;5116273;28;20442;-79
2022/01/02 05:53:38;;;;;;;14.17;11.10;;;;;;;10.67;90.28;95721.91;5116155;28;20446;-78
2022/01/02 05:56:06;;;;;;;13.23;11.37;;;;;;;10.64;89.92;95721.28;5059998;28;20472;-78
2022/01/02 05:58:33;;;;;;;12.30;11.00;;;;;;;10.65;90.79;95725.59;5095479;28;21231;-79
2022/01/02 06:01:00;;;;;;;15.10;11.63;;;;;;;10.63;91.67;95724.84;5095872;28;20798;-78
2022/01/02 06:03:28;;;;;;;15.93;13.80;;;;;;;10.61;91.61;95722.34;5096084;28;20444;-78
2022/01/02 06:05:55;;;;;;;13.93;11.60;;;;;;;10.70;91.65;95721.72;5076953;28;20471;-78
2022/01/02 06:08:22;;;;;;;25.47;16.40;;;;;;;10.74;90.83;95722.31;5095824;28;20445;-78
2022/01/02 06:10:49;;;;;;;18.40;12.93;;;;;;;10.72;90.96;95735.56;5059723;28;20432;-78
2022/01/02 06:13:16;;;;;;;21.23;15.03;;;;;;;10.69;90.17;95737.53;5095470;28;20448;-78
2022/01/02 06:15:43;;;;;;;19.33;13.73;;;;;;;10.70;90.39;95734.00;5095593;28;20445;-78
2022/01/02 06:18:10;;;;;;;17.53;12.17;;;;;;;10.71;90.72;95733.88;5095417;28;21010;-78
2022/01/02 06:20:38;;;;;;;18.93;12.73;;;;;;;10.74;90.74;95738.91;5095303;28;20452;-79
2022/01/02 06:23:06;;;;;;;11.43;9.33;;;;;;;10.66;91.32;95735.97;5094970;28;20453;-78
2022/01/02 06:25:33;;;;;;;14.57;11.40;;;;;;;10.67;90.52;95742.91;5095182;28;20444;-78
2022/01/02 06:28:01;;;;;;;15.10;12.60;;;;;;;10.68;90.29;95748.97;5094989;28;20451;-78
2022/01/02 06:30:28;;;;;;;14.60;12.33;;;;;;;10.71;90.91;95743.53;5095132;28;20452;-78
2022/01/02 06:32:55;;;;;;;17.43;11.87;;;;;;;10.77;90.20;95745.72;5095620;28;20938;-78
2022/01/02 06:35:24;;;;;;;12.00;10.07;;;;;;;10.76;90.14;95754.56;5094918;28;20441;-78
2022/01/02 06:37:53;;;;;;;12.97;9.97;;;;;;;10.77;90.31;95759.69;5094656;28;20486;-78
2022/01/02 06:40:21;;;;;;;11.90;9.80;;;;;;;10.80;90.31;95754.22;5094804;28;20457;-79
2022/01/02 06:42:48;;;;;;;15.23;11.67;;;;;;;10.91;90.12;95765.72;5094389;28;20468;-78
2022/01/02 06:45:15;;;;;;;21.30;14.40;;;;;;;10.90;89.34;95758.78;5094743;28;20939;-78
2022/01/02 06:47:43;;;;;;;20.27;13.33;;;;;;;10.96;90.20;95767.06;5095208;28;20450;-78
2022/01/02 06:50:11;;;;;;;16.40;13.77;;;;;;;10.91;89.28;95776.22;5094155;28;20963;-78
2022/01/02 06:52:39;;;;;;;15.17;10.97;;;;;;;10.95;89.12;95773.25;5094742;28;20479;-78
2022/01/02 06:55:08;;;;;;;14.63;11.77;;;;;;;10.99;88.85;95776.53;5101684;28;20975;-78
2022/01/02 06:57:34;;;;;;;13.20;10.30;;;;;;;10.99;88.12;95779.16;5114647;28;20454;-78
2022/01/02 07:00:01;;;;;;;12.13;9.63;;;;;;;10.84;89.26;95778.47;5115372;28;20437;-78
2022/01/02 07:02:28;;;;;;;12.57;11.27;;;;;;;10.93;89.00;95788.28;5062846;28;20439;-78
2022/01/02 07:04:55;;;;;;;12.00;10.27;;;;;;;10.88;89.14;95782.53;5114648;28;20436;-78
2022/01/02 07:07:22;;;;;;;14.83;10.40;;;;;;;10.88;89.25;95787.78;5115327;28;20446;-78
2022/01/02 07:09:49;;;;;;;13.03;11.50;;;;;;;10.90;89.23;95796.41;5114743;28;20470;-79
2022/01/02 07:12:17;;;;;;;13.67;12.17;;;;;;;10.93;89.38;95795.34;5114739;28;20452;-80
2022/01/02 07:14:44;;;;;;;12.40;11.10;;;;;;;10.93;88.53;95795.34;5114360;28;20453;-79
2022/01/02 07:17:11;;;;;;;12.50;9.90;;;;;;;10.97;88.64;95795.00;5114198;28;20441;-78
2022/01/02 07:19:38;;;;;;;14.13;10.10;;;;;;;11.02;88.93;95790.28;5114567;28;20478;-79
2022/01/02 07:22:05;;;;;;;15.23;9.90;;;;;;;11.05;87.73;95797.94;5114391;28;20467;-79
2022/01/02 07:24:33;;;;;;;17.53;10.90;;;;;;;11.04;87.62;95798.88;5114273;28;20456;-79
2022/01/02 07:27:01;;;;;;;10.30;7.73;;;;;;;11.06;87.79;95802.25;5114027;28;20498;-78
2022/01/02 07:29:29;;;;;;;8.23;7.40;;;;;;;11.02;87.58;95805.19;5114102;28;20441;-79
2022/01/02 07:31:56;;;;;;;13.20;10.27;;;;;;;10.97;87.52;95808.13;5114632;28;20473;-78
2022/01/02 07:34:23;;;;;;;13.70;10.03;;;;;;;11.02;88.41;95806.03;5114363;28;20848;-79
2022/01/02 07:36:50;;;;;;;11.30;9.97;;;;;;;11.02;88.59;95803.41;5114266;28;20795;-79
2022/01/02 07:39:17;;;;;;;10.77;8.50;;;;;;;10.98;88.28;95799.31;5113726;28;20485;-79
2022/01/02 07:41:44;;;;;;;10.00;9.00;;;;;;;10.99;88.18;95808.06;5113951;28;20440;-79
2022/01/02 07:44:11;;;;;;;12.57;9.80;;;;;;;11.01;88.03;95809.63;5114451;28;20440;-78
2022/01/02 07:46:39;;;;;;;12.97;11.00;;;;;;;11.06;89.39;95806.66;5113871;28;20446;-78
2022/01/02 07:49:07;;;;;;;20.30;12.30;;;;;;;11.07;87.95;95803.91;5077900;28;20465;-78
2022/01/02 07:51:34;;;;;;;16.60;13.00;;;;;;;11.08;88.11;95802.97;5113234;28;20440;-78
2022/01/02 07:54:01;;;;;;;22.43;15.00;;;;;;;11.05;87.99;95799.72;5113769;28;20787;-78
2022/01/02 07:56:28;;;;;;;17.83;11.67;;;;;;;10.98;88.17;95795.84;5113308;28;20574;-78
2022/01/02 07:58:55;;;;;;;20.30;12.80;;;;;;;11.01;88.45;95795.66;5113234;28;20485;-78
2022/01/02 08:01:23;;;;;;;17.00;12.20;;;;;;;11.01;88.32;95796.47;5114066;28;20442;-78
2022/01/02 08:03:51;;;;;;;15.53;11.60;;;;;;;11.01;88.87;95799.09;5113569;28;20509;-78
2022/01/02 08:06:18;;;;;;;15.30;8.60;;;;;;;10.98;88.32;95804.56;5113716;28;20501;-78
2022/01/02 08:08:46;;;;;;;9.83;8.83;;;;;;;10.95;88.32;95806.56;5113604;28;20820;-78
2022/01/02 08:11:15;;;;;;;11.03;8.83;;;;;;;11.01;88.26;95804.34;5113008;28;20434;-78
2022/01/02 08:13:42;;;;;;;10.90;9.80;;;;;;;11.03;87.28;95812.13;5112851;28;20447;-78
2022/01/02 08:16:09;;;;;;;10.50;8.93;;;;;;;10.96;88.39;95805.63;5113622;28;20963;-79
2022/01/02 08:18:36;;;;;;;11.27;9.50;;;;;;;11.03;88.49;95810.34;5060224;28;20483;-77
2022/01/02 08:21:04;;;;;;;9.63;8.33;;;;;;;11.06;87.58;95799.59;5113466;28;21169;-78
2022/01/02 08:23:31;;;;;;;10.40;9.10;;;;;;;11.09;87.70;95815.16;5112806;28;20434;-78
2022/01/02 08:25:58;;;;;;;12.83;10.10;;;;;;;11.13;87.34;95819.22;5113037;28;20481;-78
2022/01/02 08:28:26;;;;;;;9.60;8.60;;;;;;;11.15;86.86;95821.75;5077082;28;20453;-78
2022/01/02 08:30:53;;;;;;;12.87;10.43;;;;;;;11.14;87.14;95815.66;5113086;28;20450;-78
2022/01/02 08:33:20;;;;;;;18.10;11.30;;;;;;;11.25;87.34;95811.38;5112887;28;20935;-78
2022/01/02 08:35:48;;;;;;;11.50;10.30;;;;;;;11.30;87.00;95810.13;5113301;28;20526;-78
2022/01/02 08:38:17;;;;;;;12.37;8.90;;;;;;;11.38;86.58;95812.19;5113207;28;20535;-78
2022/01/02 08:40:44;;;;;;;10.03;9.03;;;;;;;11.42;85.65;95805.75;5113426;28;20446;-78
2022/01/02 08:43:11;;;;;;;13.70;9.70;;;;;;;11.47;85.43;95807.09;5113633;28;20437;-78
2022/01/02 08:45:38;;;;;;;8.13;7.43;;;;;;;11.45;84.16;95811.63;5113411;28;20450;-79
2022/01/02 08:48:06;;;;;;;8.67;7.77;;;;;;;11.54;84.03;95811.88;5112983;28;20449;-78
2022/01/02 08:50:33;;;;;;;9.40;7.90;;;;;;;11.51;83.57;95823.47;5113436;28;20448;-78
2022/01/02 08:53:00;;;;;;;8.37;7.57;;;;;;;11.54;84.80;95817.16;5113637;28;20535;-78
2022/01/02 08:55:28;;;;;;;9.00;7.47;;;;;;;11.64;84.43;95818.16;5112938;28;20470;-78
2022/01/02 08:57:55;;;;;;;9.67;8.67;;;;;;;11.66;83.47;95818.88;5113236;28;20442;-78
2022/01/02 09:00:23;;;;;;;9.57;8.67;;;;;;;11.74;83.79;95814.72;5113257;28;20470;-78
2022/01/02 09:02:50;;;;;;;7.17;5.87;;;;;;;11.71;82.49;95812.31;5113371;28;20451;-78
2022/01/02 09:05:17;;;;;;;9.20;6.43;;;;;;;11.62;82.18;95815.66;5116693;28;20474;-78
2022/01/02 09:07:44;;;;;;;7.93;6.60;;;;;;;11.63;81.59;95805.97;5116621;28;20468;-78
2022/01/02 09:10:11;;;;;;;8.27;7.40;;;;;;;11.63;82.38;95805.97;5116543;28;20800;-78
2022/01/02 09:12:39;;;;;;;7.63;6.93;;;;;;;11.63;81.62;95811.22;5117112;28;20446;-78
2022/01/02 09:15:09;;;;;;;6.40;5.80;;;;;;;11.60;80.91;95801.78;5116648;28;20531;-78
2022/01/02 09:17:36;;;;;;;9.20;6.50;;;;;;;11.69;80.72;95802.88;5116408;28;20952;-79
2022/01/02 09:20:04;;;;;;;6.47;5.90;;;;;;;11.74;80.70;95798.09;5081324;28;20482;-78
2022/01/02 09:22:31;;;;;;;10.03;6.10;;;;;;;11.78;80.85;95791.69;5064892;28;20449;-79
2022/01/02 09:24:58;;;;;;;10.67;8.17;;;;;;;11.83;80.30;95797.44;5117061;28;20449;-78
2022/01/02 09:27:25;;;;;;;7.40;6.70;;;;;;;11.83;80.40;95786.91;5063312;28;20439;-79
2022/01/02 09:29:53;;;;;;;8.00;7.17;;;;;;;11.89;79.57;95778.59;5116268;28;20652;-78
2022/01/02 09:32:20;;;;;;;10.03;7.27;;;;;;;11.88;79.41;95774.28;5116726;28;20791;-79
2022/01/02 09:34:47;;;;;;;8.43;6.33;;;;;;;11.93;79.23;95774.78;5116249;28;20434;-79
2022/01/02 09:37:14;;;;;;;7.80;6.00;;;;;;;11.96;78.25;95763.19;5116314;28;20443;-79
2022/01/02 09:39:41;;;;;;;7.80;6.77;;;;;;;11.98;79.00;95762.09;5116253;28;21011;-79
2022/01/02 09:42:10;;;;;;;7.93;6.47;;;;;;;12.09;78.71;95761.28;5116388;28;20446;-79
2022/01/02 09:44:37;;;;;;;7.10;6.10;;;;;;;12.14;77.35;95756.47;5063450;28;20797;-79
2022/01/02 09:47:08;;;;;;;9.13;6.83;;;;;;;12.25;77.87;95750.41;5079934;28;20438;-79
2022/01/02 09:49:38;;;;;;;8.00;6.80;;;;;;;12.30;76.76;95749.09;5116342;28;20458;-80
2022/01/02 09:52:05;;;;;;;10.23;6.13;;;;;;;12.36;76.94;95755.66;5116408;28;20795;-78
2022/01/02 09:54:33;;;;;;;7.10;6.40;;;;;;;12.40;76.79;95750.03;5115831;28;20449;-79
2022/01/02 09:57:01;;;;;;;9.53;6.70;;;;;;;12.48;76.21;95746.00;5079542;28;20453;-78
2022/01/02 09:59:28;;;;;;;7.80;5.60;;;;;;;12.55;75.15;95747.19;5063002;28;21011;-79
2022/01/02 10:01:55;;;;;;;6.60;6.00;;;;;;;12.58;75.12;95746.94;5115837;28;20442;-79
2022/01/02 10:05:01;;;;;;;8.57;6.47;;;;;;;12.67;73.85;95741.75;5115668;28;20450;-78
2022/01/02 10:07:31;;;;;;;15.00;8.80;;;;;;;12.76;73.96;95745.47;5116035;28;20457;-78
2022/01/02 10:09:58;;;;;;;13.50;6.90;;;;;;;12.83;73.99;95744.03;5115809;28;20507;-78
2022/01/02 10:12:29;;;;;;;14.63;9.07;;;;;;;12.86;74.02;95735.88;5115632;28;20451;-78
2022/01/02 10:15:14;;;;;;;7.03;6.43;;;;;;;12.95;73.88;95729.84;5114751;28;20445;-78
2022/01/02 10:17:56;;;;;;;6.37;5.77;;;;;;;12.99;73.41;95726.00;5115965;28;20440;-78
2022/01/02 10:20:26;;;;;;;10.77;6.90;;;;;;;13.00;73.49;95722.41;5115492;28;20581;-78
2022/01/02 10:23:10;;;;;;;18.10;9.47;;;;;;;12.99;74.33;95726.00;5115292;28;20933;-79
2022/01/02 10:25:43;;;;;;;14.10;9.37;;;;;;;13.00;73.92;95713.66;5115340;28;20938;-79
2022/01/02 10:28:20;;;;;;;18.07;11.30;;;;;;;13.03;73.98;95716.91;5115090;28;20507;-79
2022/01/02 10:30:48;;;;;;;15.97;9.37;;;;;;;13.06;73.22;95713.19;5115311;28;20933;-79
2022/01/02 10:33:15;;;;;;;14.13;8.80;;;;;;;13.11;73.53;95704.91;5115405;28;20450;-79
2022/01/02 10:35:43;;;;;;;10.80;7.60;;;;;;;13.09;72.79;95704.19;5116157;28;20449;-79
2022/01/02 10:38:16;;;;;;;10.03;8.93;;;;;;;13.07;73.06;95701.69;5115626;28;20419;-78
2022/01/02 10:40:44;;;;;;;8.60;6.80;;;;;;;13.08;72.79;95703.38;5063091;28;20475;-79
2022/01/02 10:43:22;;;;;;;10.87;6.40;;;;;;;12.99;73.39;95698.81;5114819;28;20451;-79
2022/01/02 10:45:50;;;;;;;28.07;17.60;;;;;;;12.96;73.85;95699.91;5114853;28;20439;-79
2022/01/02 10:48:29;;;;;;;9.43;8.17;;;;;;;12.99;74.03;95701.47;5114820;28;20455;-79
2022/01/02 10:51:08;;;;;;;22.47;13.33;;;;;;;13.06;73.81;95699.19;5114931;28;20446;-79
2022/01/02 10:53:37;;;;;;;25.03;17.37;;;;;;;13.09;73.82;95698.94;5114934;28;20438;-79
2022/01/02 10:56:06;;;;;;;19.23;15.87;;;;;;;13.13;74.09;95695.91;5114801;28;20477;-79
2022/01/02 10:58:34;;;;;;;14.17;8.50;;;;;;;13.15;73.02;95679.97;5062696;28;20945;-79
2022/01/02 11:01:05;;;;;;;28.00;17.93;;;;;;;13.12;72.44;95681.06;5114682;28;20451;-78
2022/01/02 11:03:33;;;;;;;14.23;10.50;;;;;;;13.17;72.47;95681.56;5114191;28;20436;-79
2022/01/02 11:06:08;;;;;;;5.93;5.33;;;;;;;13.12;72.09;95677.59;5114350;28;20447;-79
2022/01/02 11:08:36;;;;;;;8.23;6.83;;;;;;;13.19;72.35;95676.16;5114342;28;20451;-79
2022/01/02 11:11:05;;;;;;;9.00;6.27;;;;;;;13.21;71.63;95674.22;5114612;28;20875;-79
2022/01/02 11:13:33;;;;;;;7.00;5.57;;;;;;;13.19;71.37;95678.78;5114301;28;20518;-79
2022/01/02 11:16:02;;;;;;;9.07;5.83;;;;;;;13.24;70.87;95676.59;5114845;28;20458;-79
2022/01/02 11:18:33;;;;;;;13.20;8.63;;;;;;;13.22;71.37;95665.34;5114727;28;20925;-79
2022/01/02 11:21:01;;;;;;;9.03;7.90;;;;;;;13.28;71.42;95662.19;5114815;28;20482;-79
2022/01/02 11:23:34;;;;;;;9.20;6.70;;;;;;;13.31;71.61;95661.97;5114548;28;20440;-79
2022/01/02 11:26:08;;;;;;;7.70;6.93;;;;;;;13.39;71.24;95662.16;5114640;28;20447;-79
2022/01/02 11:28:38;;;;;;;8.43;5.70;;;;;;;13.43;71.08;95660.94;5114129;28;20964;-79
2022/01/02 11:31:07;;;;;;;13.43;5.93;;;;;;;13.38;70.69;95657.03;5114104;28;20439;-78